createdAt,value
2023-05-14T00:00:22.104Z,4.23
2023-05-14T00:02:52.000Z,4.53
2023-05-14T00:05:20.274Z,5.27
2023-05-14T00:07:48.273Z,6.63
2023-05-14T00:10:17.889Z,3.27
2023-05-14T00:12:46.180Z,5.17
2023-05-14T00:15:14.401Z,3.30
2023-05-14T00:17:42.750Z,3.10
2023-05-14T00:20:13.393Z,3.63
2023-05-14T00:22:41.589Z,3.57
2023-05-14T00:25:10.532Z,3.33
2023-05-14T00:27:38.836Z,3.57
2023-05-14T00:30:07.909Z,3.87
2023-05-14T00:32:36.162Z,3.97
2023-05-14T00:35:04.532Z,6.43
2023-05-14T00:37:33.782Z,4.37
2023-05-14T00:40:01.678Z,5.57
2023-05-14T00:42:29.770Z,5.50
2023-05-14T00:44:57.703Z,4.83
2023-05-14T00:47:25.948Z,4.07
2023-05-14T00:49:54.457Z,6.50
2023-05-14T00:52:23.003Z,4.13
2023-05-14T00:54:52.960Z,4.10
2023-05-14T00:57:21.667Z,5.13
2023-05-14T00:59:50.201Z,4.40
2023-05-14T01:02:18.416Z,4.43
2023-05-14T01:04:46.604Z,4.43
2023-05-14T01:07:21.892Z,4.53
2023-05-14T01:09:56.944Z,4.20
2023-05-14T01:12:34.741Z,4.37
2023-05-14T01:15:11.874Z,8.00
2023-05-14T01:17:47.341Z,4.53
2023-05-14T01:20:16.409Z,5.43
2023-05-14T01:22:45.882Z,4.90
2023-05-14T01:25:14.022Z,6.27
2023-05-14T01:27:48.498Z,5.20
2023-05-14T01:30:23.029Z,4.40
2023-05-14T01:32:55.718Z,4.90
2023-05-14T01:35:27.546Z,4.67
2023-05-14T01:38:00.667Z,6.43
2023-05-14T01:40:29.216Z,4.63
2023-05-14T01:42:57.846Z,4.33
2023-05-14T01:45:26.201Z,4.70
2023-05-14T01:47:55.828Z,5.10
2023-05-14T01:50:24.577Z,4.20
2023-05-14T01:52:56.397Z,4.50
2023-05-14T01:55:26.697Z,7.27
2023-05-14T01:57:55.118Z,6.17
2023-05-14T02:00:25.367Z,6.23
2023-05-14T02:02:54.045Z,5.57
2023-05-14T02:05:22.545Z,4.90
2023-05-14T02:07:51.414Z,5.47
2023-05-14T02:10:19.742Z,5.03
2023-05-14T02:12:49.210Z,4.83
2023-05-14T02:15:17.190Z,6.67
2023-05-14T02:17:45.732Z,5.30
2023-05-14T02:20:14.500Z,4.83
2023-05-14T02:22:45.709Z,5.40
2023-05-14T02:25:13.888Z,6.43
2023-05-14T02:27:41.956Z,5.60
2023-05-14T02:30:12.949Z,6.60
2023-05-14T02:32:41.122Z,5.20
2023-05-14T02:35:10.195Z,5.53
2023-05-14T02:37:39.173Z,5.73
2023-05-14T02:40:08.525Z,4.73
2023-05-14T02:42:36.533Z,5.10
2023-05-14T02:45:04.971Z,5.40
2023-05-14T02:47:37.530Z,5.20
2023-05-14T02:50:07.200Z,5.27
2023-05-14T02:52:35.386Z,4.57
2023-05-14T02:55:05.067Z,6.43
2023-05-14T02:57:33.255Z,5.67
2023-05-14T03:00:01.669Z,4.97
2023-05-14T03:02:30.345Z,5.10
2023-05-14T03:05:00.215Z,5.10
2023-05-14T03:07:28.294Z,6.67
2023-05-14T03:09:56.589Z,5.10
2023-05-14T03:12:24.656Z,5.33
2023-05-14T03:14:52.688Z,6.70
2023-05-14T03:17:21.283Z,5.30
2023-05-14T03:19:49.450Z,5.60
2023-05-14T03:22:19.294Z,5.03
2023-05-14T03:24:47.312Z,6.60
2023-05-14T03:27:15.321Z,4.77
2023-05-14T03:29:43.541Z,5.67
2023-05-14T03:32:11.568Z,6.23
2023-05-14T03:34:39.946Z,6.50
2023-05-14T03:37:07.904Z,5.30
2023-05-14T03:39:37.804Z,6.33
2023-05-14T03:42:06.524Z,5.47
2023-05-14T03:44:34.618Z,6.10
2023-05-14T03:47:02.700Z,5.83
2023-05-14T03:49:30.989Z,5.87
2023-05-14T03:51:59.385Z,7.57
2023-05-14T03:54:27.538Z,6.10
2023-05-14T03:56:57.023Z,8.07
2023-05-14T03:59:25.376Z,6.93
2023-05-14T04:01:53.381Z,6.20
2023-05-14T04:04:21.509Z,6.10
2023-05-14T04:06:49.839Z,7.07
2023-05-14T04:09:18.288Z,6.13
2023-05-14T04:11:46.256Z,6.37
2023-05-14T04:14:15.731Z,5.77
2023-05-14T04:16:43.752Z,7.83
2023-05-14T04:19:12.391Z,6.10
2023-05-14T04:21:40.491Z,10.03
2023-05-14T04:24:09.336Z,5.80
2023-05-14T04:26:37.331Z,5.90
2023-05-14T04:29:05.500Z,5.47
2023-05-14T04:31:35.244Z,6.77
2023-05-14T04:34:03.328Z,6.10
2023-05-14T04:36:31.705Z,5.77
2023-05-14T04:38:59.737Z,5.97
2023-05-14T04:41:27.732Z,6.13
2023-05-14T04:43:57.727Z,5.43
2023-05-14T04:46:25.737Z,8.63
2023-05-14T04:48:55.313Z,6.60
2023-05-14T04:51:23.390Z,5.67
2023-05-14T04:56:17.471Z,5.47
2023-05-14T04:58:45.527Z,5.50
2023-05-14T05:01:13.605Z,5.70
2023-05-14T05:03:41.862Z,6.30
2023-05-14T05:06:11.360Z,7.13
2023-05-14T05:08:39.808Z,5.07
2023-05-14T05:11:07.952Z,7.37
2023-05-14T05:13:36.255Z,5.10
2023-05-14T05:16:04.814Z,4.57
2023-05-14T05:18:33.095Z,5.27
2023-05-14T05:21:01.288Z,4.17
2023-05-14T05:23:30.692Z,3.93
2023-05-14T05:25:58.663Z,3.60
2023-05-14T05:28:26.791Z,5.80
2023-05-14T05:30:55.121Z,5.27
2023-05-14T05:33:23.395Z,3.60
2023-05-14T05:35:52.553Z,3.70
2023-05-14T05:38:20.720Z,4.97
2023-05-14T05:40:50.469Z,4.20
2023-05-14T05:43:19.034Z,5.00
2023-05-14T05:45:47.005Z,4.67
2023-05-14T05:48:15.164Z,5.57
2023-05-14T05:50:44.742Z,3.57
2023-05-14T05:53:12.916Z,5.43
2023-05-14T05:55:42.119Z,4.30
2023-05-14T05:58:11.794Z,3.63
2023-05-14T06:00:39.802Z,3.60
2023-05-14T06:03:07.915Z,4.03
2023-05-14T06:05:36.198Z,3.93
2023-05-14T06:08:04.570Z,3.77
2023-05-14T06:10:33.051Z,3.77
2023-05-14T06:13:01.307Z,4.17
2023-05-14T06:15:30.874Z,3.53
2023-05-14T06:17:59.248Z,3.40
2023-05-14T06:20:27.307Z,4.40
2023-05-14T06:22:55.507Z,4.00
2023-05-14T06:25:23.633Z,3.87
2023-05-14T06:27:51.764Z,3.43
2023-05-14T06:30:20.262Z,3.50
2023-05-14T06:32:50.507Z,3.43
2023-05-14T06:35:19.060Z,3.83
2023-05-14T06:37:47.151Z,4.50
2023-05-14T06:40:16.545Z,3.60
2023-05-14T06:42:44.941Z,4.43
2023-05-14T06:45:13.294Z,3.40
2023-05-14T06:47:41.464Z,2.90
2023-05-14T06:50:12.314Z,3.93
2023-05-14T06:52:40.358Z,3.80
2023-05-14T06:55:09.236Z,3.50
2023-05-14T06:57:38.629Z,4.30
2023-05-14T07:00:10.022Z,3.83
2023-05-14T07:02:38.500Z,3.10
2023-05-14T07:05:08.801Z,4.43
2023-05-14T07:07:38.217Z,3.27
2023-05-14T07:10:08.323Z,4.63
2023-05-14T07:12:36.649Z,2.87
2023-05-14T07:15:05.805Z,2.73
2023-05-14T07:17:34.039Z,4.47
2023-05-14T07:20:01.945Z,3.10
2023-05-14T07:22:30.072Z,2.87
2023-05-14T07:24:59.519Z,2.90
2023-05-14T07:27:27.593Z,4.63
2023-05-14T07:29:55.473Z,2.93
2023-05-14T07:32:25.059Z,2.87
2023-05-14T07:34:53.202Z,2.97
2023-05-14T07:37:24.176Z,3.97
2023-05-14T07:39:53.945Z,3.20
2023-05-14T07:42:35.247Z,3.37
2023-05-14T07:45:04.385Z,2.93
2023-05-14T07:47:32.825Z,4.27
2023-05-14T07:50:01.065Z,2.90
2023-05-14T07:52:29.088Z,2.70
2023-05-14T07:54:57.199Z,2.93
2023-05-14T07:57:26.662Z,5.90
2023-05-14T07:59:54.707Z,4.03
2023-05-14T08:02:23.418Z,4.37
2023-05-14T08:04:51.742Z,3.20
2023-05-14T08:07:20.400Z,3.07
2023-05-14T08:09:48.351Z,3.00
2023-05-14T08:12:17.115Z,4.37
2023-05-14T08:14:46.802Z,3.67
2023-05-14T08:17:15.050Z,3.40
2023-05-14T08:19:43.093Z,3.00
2023-05-14T08:22:11.061Z,5.33
2023-05-14T08:24:39.085Z,2.90
2023-05-14T08:27:08.066Z,3.13
2023-05-14T08:29:36.070Z,4.33
2023-05-14T08:32:19.382Z,3.00
2023-05-14T08:34:51.728Z,4.13
2023-05-14T08:37:20.407Z,3.73
2023-05-14T08:39:48.426Z,2.73
2023-05-14T08:42:21.762Z,3.27
2023-05-14T08:44:51.401Z,3.43
2023-05-14T08:47:23.373Z,2.97
2023-05-14T08:49:55.823Z,3.67
2023-05-14T08:52:24.106Z,2.53
2023-05-14T08:54:54.143Z,2.60
2023-05-14T08:57:25.017Z,3.30
2023-05-14T08:59:53.039Z,2.80
2023-05-14T09:02:25.722Z,3.57
2023-05-14T09:04:57.419Z,3.20
2023-05-14T09:07:25.794Z,3.37
2023-05-14T09:09:54.696Z,2.60
2023-05-14T09:12:23.191Z,2.87
2023-05-14T09:14:52.545Z,2.43
2023-05-14T09:17:22.465Z,2.40
2023-05-14T09:19:53.031Z,2.40
2023-05-14T09:22:21.729Z,2.40
2023-05-14T09:25:03.938Z,2.10
2023-05-14T09:27:33.124Z,2.60
2023-05-14T09:30:09.520Z,2.40
2023-05-14T09:32:40.555Z,2.93
2023-05-14T09:35:14.606Z,3.00
2023-05-14T09:37:44.016Z,2.80
2023-05-14T09:40:14.395Z,3.40
2023-05-14T09:42:42.778Z,2.30
2023-05-14T09:45:11.691Z,2.70
2023-05-14T09:47:41.261Z,4.27
2023-05-14T09:50:10.448Z,3.47
2023-05-14T09:52:39.377Z,3.07
2023-05-14T09:55:08.477Z,5.43
2023-05-14T09:57:36.862Z,3.73
2023-05-14T10:00:05.794Z,2.70
2023-05-14T10:02:39.432Z,4.23
2023-05-14T10:05:11.029Z,3.10
2023-05-14T10:07:43.621Z,2.83
2023-05-14T10:10:16.463Z,2.43
2023-05-14T10:12:50.022Z,3.77
2023-05-14T10:15:22.223Z,2.53
2023-05-14T10:17:54.153Z,2.43
2023-05-14T10:20:26.770Z,2.80
2023-05-14T10:22:55.348Z,2.70
2023-05-14T10:25:24.372Z,3.53
2023-05-14T10:27:54.678Z,3.57
2023-05-14T10:30:23.960Z,2.47
2023-05-14T10:33:07.567Z,2.27
2023-05-14T10:36:00.903Z,4.90
2023-05-14T10:38:32.098Z,3.50
2023-05-14T10:41:05.216Z,3.57
2023-05-14T10:43:38.450Z,2.40
2023-05-14T10:46:07.973Z,3.70
2023-05-14T10:48:37.785Z,2.53
2023-05-14T10:51:09.662Z,1.90
2023-05-14T10:53:39.126Z,2.40
2023-05-14T10:56:12.314Z,11.10
2023-05-14T10:58:41.624Z,4.17
2023-05-14T11:01:11.977Z,4.37
2023-05-14T11:03:45.021Z,1.73
2023-05-14T11:06:16.959Z,1.97
2023-05-14T11:08:47.144Z,1.83
2023-05-14T11:11:15.650Z,2.10
2023-05-14T11:13:44.687Z,2.50
2023-05-14T11:16:22.530Z,2.63
2023-05-14T11:18:55.808Z,2.00
2023-05-14T11:21:25.374Z,3.67
2023-05-14T11:23:53.293Z,3.80
2023-05-14T11:26:21.898Z,2.80
2023-05-14T11:28:50.351Z,2.50
2023-05-14T11:31:19.022Z,2.13
2023-05-14T11:33:47.204Z,2.67
2023-05-14T11:36:15.534Z,3.37
2023-05-14T11:38:52.927Z,2.57
2023-05-14T11:41:23.115Z,2.60
2023-05-14T11:43:51.628Z,1.87
2023-05-14T11:46:19.784Z,3.80
2023-05-14T11:48:48.214Z,2.07
2023-05-14T11:51:16.203Z,3.97
2023-05-14T11:53:44.149Z,2.30
2023-05-14T11:56:13.745Z,2.07
2023-05-14T11:58:44.882Z,2.27
2023-05-14T12:01:14.939Z,3.03
2023-05-14T12:03:43.213Z,4.13
2023-05-14T12:06:11.542Z,2.20
2023-05-14T12:08:39.525Z,4.57
2023-05-14T12:11:07.675Z,3.23
2023-05-14T12:13:38.185Z,3.17
2023-05-14T12:16:06.469Z,3.27
2023-05-14T12:18:35.306Z,2.23
2023-05-14T12:21:04.358Z,2.37
2023-05-14T12:23:33.258Z,4.90
2023-05-14T12:26:05.964Z,2.20
2023-05-14T12:28:36.862Z,2.20
2023-05-14T12:31:07.605Z,2.03
2023-05-14T12:33:35.572Z,2.00
2023-05-14T12:38:35.019Z,2.70
2023-05-14T12:41:05.564Z,2.73
2023-05-14T12:43:33.589Z,2.00
2023-05-14T12:46:01.631Z,2.90
2023-05-14T12:48:31.063Z,2.40
2023-05-14T12:50:59.228Z,3.40
2023-05-14T12:53:27.353Z,2.50
2023-05-14T12:55:56.259Z,3.13
2023-05-14T12:58:24.265Z,2.13
2023-05-14T13:00:52.498Z,2.30
2023-05-14T13:03:21.282Z,3.00
2023-05-14T13:05:52.117Z,2.60
2023-05-14T13:08:21.492Z,3.57
2023-05-14T13:10:50.599Z,3.53
2023-05-14T13:13:18.606Z,1.93
2023-05-14T13:15:48.906Z,1.97
2023-05-14T13:18:17.656Z,3.60
2023-05-14T13:20:48.811Z,1.60
2023-05-14T13:23:19.293Z,1.90
2023-05-14T13:25:49.762Z,2.47
2023-05-14T13:28:17.992Z,2.33
2023-05-14T13:31:06.308Z,3.00
2023-05-14T13:33:36.741Z,2.53
2023-05-14T13:36:05.425Z,1.47
2023-05-14T13:38:35.653Z,2.20
2023-05-14T13:41:03.814Z,1.67
2023-05-14T13:43:32.085Z,2.00
2023-05-14T13:46:01.143Z,1.63
2023-05-14T13:48:29.283Z,3.70
2023-05-14T13:50:57.481Z,1.40
2023-05-14T13:53:26.343Z,2.07
2023-05-14T13:56:00.201Z,2.20
2023-05-14T13:58:29.494Z,2.83
2023-05-14T14:00:58.530Z,2.23
2023-05-14T14:03:26.510Z,1.80
2023-05-14T14:05:54.554Z,1.77
2023-05-14T14:08:24.353Z,2.90
2023-05-14T14:10:55.304Z,1.97
2023-05-14T14:13:24.841Z,3.87
2023-05-14T14:15:54.761Z,1.43
